sensor_id;sensor_type;location;lat;lon;timestamp;temperature;humidity
15409;DHT22;7803;48.130;13.788;2022-09-30T00:02:38;23.30;99.90
15409;DHT22;7803;48.130;13.788;2022-09-30T00:05:41;23.30;99.90
15409;DHT22;7803;48.130;13.788;2022-09-30T00:08:43;23.30;99.90
15409;DHT22;7803;48.130;13.788;2022-09-30T00:11:45;23.30;99.90
15409;DHT22;7803;48.130;13.788;2022-09-30T00:14:47;23.30;99.90
15409;DHT22;7803;48.130;13.788;2022-09-30T00:17:49;23.30;99.90
15409;DHT22;7803;48.130;13.788;2022-09-30T00:20:52;23.30;99.90
15409;DHT22;7803;48.130;13.788;2022-09-30T00:23:55;23.30;99.90
15409;DHT22;7803;48.130;13.788;2022-09-30T00:26:57;23.30;99.90
15409;DHT22;7803;48.130;13.788;2022-09-30T00:29:59;23.30;99.90
15409;DHT22;7803;48.130;13.788;2022-09-30T00:33:01;23.20;99.90
15409;DHT22;7803;48.130;13.788;2022-09-30T00:36:05;23.20;99.90
15409;DHT22;7803;48.130;13.788;2022-09-30T00:39:10;23.20;99.90
15409;DHT22;7803;48.130;13.788;2022-09-30T00:42:13;23.20;99.90
15409;DHT22;7803;48.130;13.788;2022-09-30T00:45:15;23.20;99.90
15409;DHT22;7803;48.130;13.788;2022-09-30T00:48:20;23.20;99.90
15409;DHT22;7803;48.130;13.788;2022-09-30T00:51:29;23.20;99.90
15409;DHT22;7803;48.130;13.788;2022-09-30T00:54:33;23.20;99.90
15409;DHT22;7803;48.130;13.788;2022-09-30T00:57:36;23.20;99.90
15409;DHT22;7803;48.130;13.788;2022-09-30T01:00:38;23.20;99.90
15409;DHT22;7803;48.130;13.788;2022-09-30T01:03:42;23.20;99.90
15409;DHT22;7803;48.130;13.788;2022-09-30T01:06:46;23.20;99.90
15409;DHT22;7803;48.130;13.788;2022-09-30T01:09:48;23.10;99.90
15409;DHT22;7803;48.130;13.788;2022-09-30T01:12:51;23.10;99.90
15409;DHT22;7803;48.130;13.788;2022-09-30T01:16:05;23.10;99.90
15409;DHT22;7803;48.130;13.788;2022-09-30T01:19:41;23.10;99.90
15409;DHT22;7803;48.130;13.788;2022-09-30T01:23:02;23.10;99.90
15409;DHT22;7803;48.130;13.788;2022-09-30T01:26:33;23.10;99.90
15409;DHT22;7803;48.130;13.788;2022-09-30T01:30:05;23.10;99.90
15409;DHT22;7803;48.130;13.788;2022-09-30T01:33:19;23.10;99.90
15409;DHT22;7803;48.130;13.788;2022-09-30T01:36:37;23.10;99.90
15409;DHT22;7803;48.130;13.788;2022-09-30T01:39:49;23.10;99.90
15409;DHT22;7803;48.130;13.788;2022-09-30T01:42:57;23.10;99.90
15409;DHT22;7803;48.130;13.788;2022-09-30T01:46:06;23.00;99.90
15409;DHT22;7803;48.130;13.788;2022-09-30T01:49:19;23.10;99.90
15409;DHT22;7803;48.130;13.788;2022-09-30T01:52:33;23.00;99.90
15409;DHT22;7803;48.130;13.788;2022-09-30T01:55:44;23.00;99.90
15409;DHT22;7803;48.130;13.788;2022-09-30T01:58:52;23.00;99.90
15409;DHT22;7803;48.130;13.788;2022-09-30T02:01:58;23.00;99.90
15409;DHT22;7803;48.130;13.788;2022-09-30T02:05:07;23.00;99.90
15409;DHT22;7803;48.130;13.788;2022-09-30T02:08:14;23.00;99.90
15409;DHT22;7803;48.130;13.788;2022-09-30T02:11:20;23.00;99.90
15409;DHT22;7803;48.130;13.788;2022-09-30T02:14:27;23.00;99.90
15409;DHT22;7803;48.130;13.788;2022-09-30T02:17:34;23.00;99.90
15409;DHT22;7803;48.130;13.788;2022-09-30T02:20:42;23.00;99.90
15409;DHT22;7803;48.130;13.788;2022-09-30T02:23:46;23.00;99.90
15409;DHT22;7803;48.130;13.788;2022-09-30T02:26:52;23.00;99.90
15409;DHT22;7803;48.130;13.788;2022-09-30T02:29:58;23.00;99.90
15409;DHT22;7803;48.130;13.788;2022-09-30T02:33:03;23.00;99.90
15409;DHT22;7803;48.130;13.788;2022-09-30T02:36:12;23.00;99.90
15409;DHT22;7803;48.130;13.788;2022-09-30T02:39:24;23.00;99.90
15409;DHT22;7803;48.130;13.788;2022-09-30T02:42:29;23.00;99.90
15409;DHT22;7803;48.130;13.788;2022-09-30T02:45:38;22.90;99.90
15409;DHT22;7803;48.130;13.788;2022-09-30T02:48:47;22.90;99.90
15409;DHT22;7803;48.130;13.788;2022-09-30T02:52:04;22.90;99.90
15409;DHT22;7803;48.130;13.788;2022-09-30T02:55:16;22.90;99.90
15409;DHT22;7803;48.130;13.788;2022-09-30T02:58:20;22.90;99.90
15409;DHT22;7803;48.130;13.788;2022-09-30T03:01:25;22.90;99.90
15409;DHT22;7803;48.130;13.788;2022-09-30T03:04:29;22.90;99.90
15409;DHT22;7803;48.130;13.788;2022-09-30T03:07:35;22.80;99.90
15409;DHT22;7803;48.130;13.788;2022-09-30T03:10:37;22.90;99.90
15409;DHT22;7803;48.130;13.788;2022-09-30T03:14:16;22.90;99.90
15409;DHT22;7803;48.130;13.788;2022-09-30T03:17:40;22.90;99.90
15409;DHT22;7803;48.130;13.788;2022-09-30T03:20:55;22.90;99.90
15409;DHT22;7803;48.130;13.788;2022-09-30T03:24:22;22.90;99.90
15409;DHT22;7803;48.130;13.788;2022-09-30T03:27:32;22.80;99.90
15409;DHT22;7803;48.130;13.788;2022-09-30T03:30:40;22.80;99.90
15409;DHT22;7803;48.130;13.788;2022-09-30T03:33:50;22.80;99.90
15409;DHT22;7803;48.130;13.788;2022-09-30T03:36:59;22.90;99.90
15409;DHT22;7803;48.130;13.788;2022-09-30T03:40:07;22.90;99.90
15409;DHT22;7803;48.130;13.788;2022-09-30T03:43:22;22.90;99.90
15409;DHT22;7803;48.130;13.788;2022-09-30T03:46:30;22.80;99.90
15409;DHT22;7803;48.130;13.788;2022-09-30T03:49:38;22.90;99.90
15409;DHT22;7803;48.130;13.788;2022-09-30T03:52:40;22.90;99.90
15409;DHT22;7803;48.130;13.788;2022-09-30T03:55:48;22.90;99.90
15409;DHT22;7803;48.130;13.788;2022-09-30T03:58:51;23.00;99.90
15409;DHT22;7803;48.130;13.788;2022-09-30T04:01:53;23.00;99.90
15409;DHT22;7803;48.130;13.788;2022-09-30T04:04:56;23.00;99.90
15409;DHT22;7803;48.130;13.788;2022-09-30T04:07:58;23.00;99.90
15409;DHT22;7803;48.130;13.788;2022-09-30T04:11:03;23.00;99.90
15409;DHT22;7803;48.130;13.788;2022-09-30T04:14:05;23.10;99.90
15409;DHT22;7803;48.130;13.788;2022-09-30T04:17:07;23.10;99.90
15409;DHT22;7803;48.130;13.788;2022-09-30T04:20:09;23.00;99.90
15409;DHT22;7803;48.130;13.788;2022-09-30T04:23:12;23.10;99.90
15409;DHT22;7803;48.130;13.788;2022-09-30T04:26:17;23.10;99.90
15409;DHT22;7803;48.130;13.788;2022-09-30T04:29:19;23.10;99.90
15409;DHT22;7803;48.130;13.788;2022-09-30T04:32:21;23.10;99.90
15409;DHT22;7803;48.130;13.788;2022-09-30T04:35:25;23.10;99.90
15409;DHT22;7803;48.130;13.788;2022-09-30T04:38:29;23.10;99.90
15409;DHT22;7803;48.130;13.788;2022-09-30T04:41:32;23.10;99.90
15409;DHT22;7803;48.130;13.788;2022-09-30T04:44:34;23.10;99.90
15409;DHT22;7803;48.130;13.788;2022-09-30T04:47:36;23.20;99.90
15409;DHT22;7803;48.130;13.788;2022-09-30T04:50:38;23.10;99.90
15409;DHT22;7803;48.130;13.788;2022-09-30T04:53:41;23.20;99.90
15409;DHT22;7803;48.130;13.788;2022-09-30T04:56:45;23.20;99.90
15409;DHT22;7803;48.130;13.788;2022-09-30T04:59:47;23.20;99.90
15409;DHT22;7803;48.130;13.788;2022-09-30T05:02:50;23.20;99.90
15409;DHT22;7803;48.130;13.788;2022-09-30T05:05:53;23.20;99.90
15409;DHT22;7803;48.130;13.788;2022-09-30T05:08:54;23.20;99.90
15409;DHT22;7803;48.130;13.788;2022-09-30T05:11:58;23.20;99.90
15409;DHT22;7803;48.130;13.788;2022-09-30T05:15:02;23.20;99.90
15409;DHT22;7803;48.130;13.788;2022-09-30T05:18:04;23.20;99.90
15409;DHT22;7803;48.130;13.788;2022-09-30T05:21:06;23.20;99.90
15409;DHT22;7803;48.130;13.788;2022-09-30T05:24:08;23.30;99.90
15409;DHT22;7803;48.130;13.788;2022-09-30T05:27:11;23.30;99.90
15409;DHT22;7803;48.130;13.788;2022-09-30T05:30:14;23.30;99.90
15409;DHT22;7803;48.130;13.788;2022-09-30T05:33:16;23.30;99.90
15409;DHT22;7803;48.130;13.788;2022-09-30T05:36:18;23.30;99.90
15409;DHT22;7803;48.130;13.788;2022-09-30T05:39:20;23.30;99.90
15409;DHT22;7803;48.130;13.788;2022-09-30T05:42:23;23.30;99.90
15409;DHT22;7803;48.130;13.788;2022-09-30T05:45:25;23.30;99.90
15409;DHT22;7803;48.130;13.788;2022-09-30T05:48:28;23.30;99.90
15409;DHT22;7803;48.130;13.788;2022-09-30T05:51:30;23.30;99.90
15409;DHT22;7803;48.130;13.788;2022-09-30T05:54:32;23.30;99.90
15409;DHT22;7803;48.130;13.788;2022-09-30T05:57:35;23.30;99.90
15409;DHT22;7803;48.130;13.788;2022-09-30T06:00:40;23.30;99.90
15409;DHT22;7803;48.130;13.788;2022-09-30T06:03:43;23.30;99.90
15409;DHT22;7803;48.130;13.788;2022-09-30T06:06:46;23.30;99.90
15409;DHT22;7803;48.130;13.788;2022-09-30T06:09:48;23.20;99.90
15409;DHT22;7803;48.130;13.788;2022-09-30T06:12:51;23.30;99.90
15409;DHT22;7803;48.130;13.788;2022-09-30T06:15:55;23.20;99.90
15409;DHT22;7803;48.130;13.788;2022-09-30T06:18:57;23.30;99.90
15409;DHT22;7803;48.130;13.788;2022-09-30T06:21:59;23.30;99.90
15409;DHT22;7803;48.130;13.788;2022-09-30T06:25:02;23.20;99.90
15409;DHT22;7803;48.130;13.788;2022-09-30T06:28:06;23.20;99.90
15409;DHT22;7803;48.130;13.788;2022-09-30T06:31:08;23.20;99.90
15409;DHT22;7803;48.130;13.788;2022-09-30T06:34:10;23.20;99.90
15409;DHT22;7803;48.130;13.788;2022-09-30T06:37:13;23.30;99.90
15409;DHT22;7803;48.130;13.788;2022-09-30T06:40:15;23.30;99.90
15409;DHT22;7803;48.130;13.788;2022-09-30T06:43:19;23.30;99.90
15409;DHT22;7803;48.130;13.788;2022-09-30T06:46:22;23.30;99.90
15409;DHT22;7803;48.130;13.788;2022-09-30T06:49:24;23.40;99.90
15409;DHT22;7803;48.130;13.788;2022-09-30T06:52:26;23.40;99.90
15409;DHT22;7803;48.130;13.788;2022-09-30T06:55:29;23.40;99.90
15409;DHT22;7803;48.130;13.788;2022-09-30T06:58:32;23.40;99.90
15409;DHT22;7803;48.130;13.788;2022-09-30T07:01:34;23.40;99.90
15409;DHT22;7803;48.130;13.788;2022-09-30T07:04:36;23.50;99.90
15409;DHT22;7803;48.130;13.788;2022-09-30T07:07:38;23.40;99.90
15409;DHT22;7803;48.130;13.788;2022-09-30T07:10:45;23.40;99.90
15409;DHT22;7803;48.130;13.788;2022-09-30T07:13:48;23.40;99.90
15409;DHT22;7803;48.130;13.788;2022-09-30T07:16:50;23.40;99.90
15409;DHT22;7803;48.130;13.788;2022-09-30T07:19:53;23.40;99.90
15409;DHT22;7803;48.130;13.788;2022-09-30T07:22:55;23.40;99.90
15409;DHT22;7803;48.130;13.788;2022-09-30T07:26:00;23.40;99.90
15409;DHT22;7803;48.130;13.788;2022-09-30T07:29:05;23.40;99.90
15409;DHT22;7803;48.130;13.788;2022-09-30T07:32:07;23.50;99.90
15409;DHT22;7803;48.130;13.788;2022-09-30T07:35:10;23.50;99.90
15409;DHT22;7803;48.130;13.788;2022-09-30T07:38:12;23.50;99.90
15409;DHT22;7803;48.130;13.788;2022-09-30T07:41:18;23.50;99.90
15409;DHT22;7803;48.130;13.788;2022-09-30T07:44:22;23.50;99.90
15409;DHT22;7803;48.130;13.788;2022-09-30T07:47:25;23.50;99.90
15409;DHT22;7803;48.130;13.788;2022-09-30T07:50:27;23.50;99.90
15409;DHT22;7803;48.130;13.788;2022-09-30T07:53:30;23.50;99.90
15409;DHT22;7803;48.130;13.788;2022-09-30T07:56:34;23.50;99.90
15409;DHT22;7803;48.130;13.788;2022-09-30T07:59:40;23.40;99.90
15409;DHT22;7803;48.130;13.788;2022-09-30T08:02:42;23.40;99.90
15409;DHT22;7803;48.130;13.788;2022-09-30T08:05:44;23.50;99.90
15409;DHT22;7803;48.130;13.788;2022-09-30T08:08:50;23.40;99.90
15409;DHT22;7803;48.130;13.788;2022-09-30T08:11:52;23.50;99.90
15409;DHT22;7803;48.130;13.788;2022-09-30T08:14:56;23.50;99.90
15409;DHT22;7803;48.130;13.788;2022-09-30T08:17:58;23.50;99.90
15409;DHT22;7803;48.130;13.788;2022-09-30T08:21:02;23.40;99.90
15409;DHT22;7803;48.130;13.788;2022-09-30T08:24:04;23.50;99.90
15409;DHT22;7803;48.130;13.788;2022-09-30T08:27:06;23.50;99.90
15409;DHT22;7803;48.130;13.788;2022-09-30T08:30:10;23.50;99.90
15409;DHT22;7803;48.130;13.788;2022-09-30T08:33:13;23.60;99.90
15409;DHT22;7803;48.130;13.788;2022-09-30T08:36:17;23.70;99.90
15409;DHT22;7803;48.130;13.788;2022-09-30T08:39:19;23.70;99.90
15409;DHT22;7803;48.130;13.788;2022-09-30T08:42:33;23.70;99.90
15409;DHT22;7803;48.130;13.788;2022-09-30T08:45:49;23.80;99.90
15409;DHT22;7803;48.130;13.788;2022-09-30T08:49:01;23.80;99.90
15409;DHT22;7803;48.130;13.788;2022-09-30T08:52:11;23.80;99.90
15409;DHT22;7803;48.130;13.788;2022-09-30T08:55:19;23.80;99.90
15409;DHT22;7803;48.130;13.788;2022-09-30T08:58:25;23.80;99.90
15409;DHT22;7803;48.130;13.788;2022-09-30T09:01:31;23.80;99.90
15409;DHT22;7803;48.130;13.788;2022-09-30T09:04:33;23.80;99.90
15409;DHT22;7803;48.130;13.788;2022-09-30T09:07:41;23.80;99.90
15409;DHT22;7803;48.130;13.788;2022-09-30T09:10:50;23.70;99.90
15409;DHT22;7803;48.130;13.788;2022-09-30T09:14:01;23.70;99.90
15409;DHT22;7803;48.130;13.788;2022-09-30T09:17:14;23.70;99.90
15409;DHT22;7803;48.130;13.788;2022-09-30T09:20:24;23.80;99.90
15409;DHT22;7803;48.130;13.788;2022-09-30T09:23:31;23.70;99.90
15409;DHT22;7803;48.130;13.788;2022-09-30T09:26:35;23.70;99.90
15409;DHT22;7803;48.130;13.788;2022-09-30T09:29:42;23.80;99.90
15409;DHT22;7803;48.130;13.788;2022-09-30T09:32:51;23.70;99.90
15409;DHT22;7803;48.130;13.788;2022-09-30T09:36:04;23.70;99.90
15409;DHT22;7803;48.130;13.788;2022-09-30T09:39:24;23.80;99.90
15409;DHT22;7803;48.130;13.788;2022-09-30T09:42:46;23.70;99.90
15409;DHT22;7803;48.130;13.788;2022-09-30T09:45:54;23.70;99.90
15409;DHT22;7803;48.130;13.788;2022-09-30T09:49:29;23.70;99.90
15409;DHT22;7803;48.130;13.788;2022-09-30T09:52:46;23.70;99.90
15409;DHT22;7803;48.130;13.788;2022-09-30T09:55:54;23.70;99.90
15409;DHT22;7803;48.130;13.788;2022-09-30T09:59:11;23.70;99.90
15409;DHT22;7803;48.130;13.788;2022-09-30T10:02:21;23.70;99.90
15409;DHT22;7803;48.130;13.788;2022-09-30T10:05:29;23.70;99.90
15409;DHT22;7803;48.130;13.788;2022-09-30T10:08:33;23.70;99.90
15409;DHT22;7803;48.130;13.788;2022-09-30T10:11:36;23.70;99.90
15409;DHT22;7803;48.130;13.788;2022-09-30T10:14:39;23.70;99.90
15409;DHT22;7803;48.130;13.788;2022-09-30T10:17:53;23.70;99.90
15409;DHT22;7803;48.130;13.788;2022-09-30T10:20:59;23.70;99.90
15409;DHT22;7803;48.130;13.788;2022-09-30T10:24:18;23.70;99.90
15409;DHT22;7803;48.130;13.788;2022-09-30T10:27:29;23.70;99.90
15409;DHT22;7803;48.130;13.788;2022-09-30T10:30:43;23.70;99.90
15409;DHT22;7803;48.130;13.788;2022-09-30T10:33:49;23.70;99.90
15409;DHT22;7803;48.130;13.788;2022-09-30T10:36:56;23.80;99.90
15409;DHT22;7803;48.130;13.788;2022-09-30T10:40:02;23.80;99.90
15409;DHT22;7803;48.130;13.788;2022-09-30T10:43:05;23.80;99.90
15409;DHT22;7803;48.130;13.788;2022-09-30T10:46:08;23.70;99.90
15409;DHT22;7803;48.130;13.788;2022-09-30T10:49:30;23.80;99.90
15409;DHT22;7803;48.130;13.788;2022-09-30T10:52:39;23.80;99.90
15409;DHT22;7803;48.130;13.788;2022-09-30T10:55:44;23.70;99.90
15409;DHT22;7803;48.130;13.788;2022-09-30T10:58:48;23.80;99.90
15409;DHT22;7803;48.130;13.788;2022-09-30T11:01:55;23.70;99.90
15409;DHT22;7803;48.130;13.788;2022-09-30T11:05:08;23.70;99.90
15409;DHT22;7803;48.130;13.788;2022-09-30T11:08:18;23.80;99.90
15409;DHT22;7803;48.130;13.788;2022-09-30T11:11:24;23.80;99.90
15409;DHT22;7803;48.130;13.788;2022-09-30T11:14:32;23.70;99.90
15409;DHT22;7803;48.130;13.788;2022-09-30T11:17:39;23.70;99.90
15409;DHT22;7803;48.130;13.788;2022-09-30T11:20:49;23.80;99.90
15409;DHT22;7803;48.130;13.788;2022-09-30T11:23:56;23.80;99.90
15409;DHT22;7803;48.130;13.788;2022-09-30T11:27:05;23.80;99.90
15409;DHT22;7803;48.130;13.788;2022-09-30T11:30:12;23.70;99.90
15409;DHT22;7803;48.130;13.788;2022-09-30T11:33:30;23.80;99.90
15409;DHT22;7803;48.130;13.788;2022-09-30T11:36:40;23.80;99.90
15409;DHT22;7803;48.130;13.788;2022-09-30T11:40:01;23.80;99.90
15409;DHT22;7803;48.130;13.788;2022-09-30T11:43:13;23.80;99.90
15409;DHT22;7803;48.130;13.788;2022-09-30T11:46:29;23.80;99.90
15409;DHT22;7803;48.130;13.788;2022-09-30T11:49:51;23.80;99.90
15409;DHT22;7803;48.130;13.788;2022-09-30T11:53:11;23.80;99.90
15409;DHT22;7803;48.130;13.788;2022-09-30T11:56:26;23.80;99.90
15409;DHT22;7803;48.130;13.788;2022-09-30T11:59:37;23.80;99.90
15409;DHT22;7803;48.130;13.788;2022-09-30T12:02:44;23.80;99.90
15409;DHT22;7803;48.130;13.788;2022-09-30T12:05:48;23.80;99.90
15409;DHT22;7803;48.130;13.788;2022-09-30T12:08:56;23.80;99.90
15409;DHT22;7803;48.130;13.788;2022-09-30T12:12:05;23.80;99.90
15409;DHT22;7803;48.130;13.788;2022-09-30T12:15:14;23.80;99.90
15409;DHT22;7803;48.130;13.788;2022-09-30T12:18:20;23.80;99.90
15409;DHT22;7803;48.130;13.788;2022-09-30T12:21:27;23.80;99.90
15409;DHT22;7803;48.130;13.788;2022-09-30T12:24:35;23.80;99.90
15409;DHT22;7803;48.130;13.788;2022-09-30T12:27:43;23.80;99.90
15409;DHT22;7803;48.130;13.788;2022-09-30T12:30:46;23.80;99.90
15409;DHT22;7803;48.130;13.788;2022-09-30T12:33:59;23.80;99.90
15409;DHT22;7803;48.130;13.788;2022-09-30T12:37:16;23.80;99.90
15409;DHT22;7803;48.130;13.788;2022-09-30T12:47:36;23.80;99.90
15409;DHT22;7803;48.130;13.788;2022-09-30T12:50:48;23.80;99.90
15409;DHT22;7803;48.130;13.788;2022-09-30T12:53:57;23.80;99.90
15409;DHT22;7803;48.130;13.788;2022-09-30T12:57:05;23.80;99.90
15409;DHT22;7803;48.130;13.788;2022-09-30T13:00:16;23.90;99.90
15409;DHT22;7803;48.130;13.788;2022-09-30T13:03:18;24.00;99.90
15409;DHT22;7803;48.130;13.788;2022-09-30T13:06:21;24.20;99.90
15409;DHT22;7803;48.130;13.788;2022-09-30T13:09:29;24.10;99.90
15409;DHT22;7803;48.130;13.788;2022-09-30T13:12:42;24.20;99.90
15409;DHT22;7803;48.130;13.788;2022-09-30T13:15:46;24.10;99.90
15409;DHT22;7803;48.130;13.788;2022-09-30T13:18:59;24.10;99.90
15409;DHT22;7803;48.130;13.788;2022-09-30T13:25:52;24.10;99.90
15409;DHT22;7803;48.130;13.788;2022-09-30T13:29:31;24.10;99.90
15409;DHT22;7803;48.130;13.788;2022-09-30T13:32:36;24.00;99.90
15409;DHT22;7803;48.130;13.788;2022-09-30T13:35:49;24.00;99.90
15409;DHT22;7803;48.130;13.788;2022-09-30T13:39:18;24.00;99.90
15409;DHT22;7803;48.130;13.788;2022-09-30T13:42:24;24.00;99.90
15409;DHT22;7803;48.130;13.788;2022-09-30T13:45:33;24.00;99.90
15409;DHT22;7803;48.130;13.788;2022-09-30T13:48:41;24.00;99.90
15409;DHT22;7803;48.130;13.788;2022-09-30T13:51:45;24.00;99.90
15409;DHT22;7803;48.130;13.788;2022-09-30T13:54:48;23.90;99.90
15409;DHT22;7803;48.130;13.788;2022-09-30T13:58:02;24.00;99.90
15409;DHT22;7803;48.130;13.788;2022-09-30T14:01:17;23.90;99.90
15409;DHT22;7803;48.130;13.788;2022-09-30T14:04:41;23.90;99.90
15409;DHT22;7803;48.130;13.788;2022-09-30T14:07:58;24.00;99.90
15409;DHT22;7803;48.130;13.788;2022-09-30T14:11:14;24.00;99.90
15409;DHT22;7803;48.130;13.788;2022-09-30T14:18:02;24.00;99.90
15409;DHT22;7803;48.130;13.788;2022-09-30T14:21:29;24.00;99.90
15409;DHT22;7803;48.130;13.788;2022-09-30T14:24:34;24.00;99.90
15409;DHT22;7803;48.130;13.788;2022-09-30T14:27:48;24.00;99.90
15409;DHT22;7803;48.130;13.788;2022-09-30T14:30:59;24.00;99.90
15409;DHT22;7803;48.130;13.788;2022-09-30T14:34:14;23.90;99.90
15409;DHT22;7803;48.130;13.788;2022-09-30T14:37:22;23.90;99.90
15409;DHT22;7803;48.130;13.788;2022-09-30T14:40:27;23.90;99.90
15409;DHT22;7803;48.130;13.788;2022-09-30T14:43:31;23.90;99.90
15409;DHT22;7803;48.130;13.788;2022-09-30T14:46:37;24.00;99.90
15409;DHT22;7803;48.130;13.788;2022-09-30T14:49:41;23.90;99.90
15409;DHT22;7803;48.130;13.788;2022-09-30T14:52:45;24.00;99.90
15409;DHT22;7803;48.130;13.788;2022-09-30T14:55:48;23.90;99.90
15409;DHT22;7803;48.130;13.788;2022-09-30T14:58:50;23.90;99.90
15409;DHT22;7803;48.130;13.788;2022-09-30T15:01:54;23.90;99.90
15409;DHT22;7803;48.130;13.788;2022-09-30T15:05:02;23.90;99.90
15409;DHT22;7803;48.130;13.788;2022-09-30T15:08:09;23.90;99.90
15409;DHT22;7803;48.130;13.788;2022-09-30T15:11:17;23.90;99.90
15409;DHT22;7803;48.130;13.788;2022-09-30T15:14:21;23.90;99.90
15409;DHT22;7803;48.130;13.788;2022-09-30T15:17:25;23.90;99.90
15409;DHT22;7803;48.130;13.788;2022-09-30T15:20:31;23.90;99.90
15409;DHT22;7803;48.130;13.788;2022-09-30T15:23:36;23.90;99.90
15409;DHT22;7803;48.130;13.788;2022-09-30T15:26:39;23.90;99.90
15409;DHT22;7803;48.130;13.788;2022-09-30T15:29:53;23.90;99.90
15409;DHT22;7803;48.130;13.788;2022-09-30T15:33:00;23.90;99.90
15409;DHT22;7803;48.130;13.788;2022-09-30T15:36:06;23.90;99.90
15409;DHT22;7803;48.130;13.788;2022-09-30T15:39:19;23.90;99.90
15409;DHT22;7803;48.130;13.788;2022-09-30T15:42:33;23.90;99.90
15409;DHT22;7803;48.130;13.788;2022-09-30T15:45:37;23.90;99.90
15409;DHT22;7803;48.130;13.788;2022-09-30T15:48:40;23.90;99.90
15409;DHT22;7803;48.130;13.788;2022-09-30T15:51:45;23.90;99.90
15409;DHT22;7803;48.130;13.788;2022-09-30T15:54:47;23.90;99.90
15409;DHT22;7803;48.130;13.788;2022-09-30T15:57:50;23.90;99.90
15409;DHT22;7803;48.130;13.788;2022-09-30T16:00:52;23.90;99.90
15409;DHT22;7803;48.130;13.788;2022-09-30T16:04:13;23.90;99.90
15409;DHT22;7803;48.130;13.788;2022-09-30T16:07:25;23.90;99.90
15409;DHT22;7803;48.130;13.788;2022-09-30T16:10:28;23.80;99.90
15409;DHT22;7803;48.130;13.788;2022-09-30T16:13:31;23.80;99.90
15409;DHT22;7803;48.130;13.788;2022-09-30T16:16:35;23.90;99.90
15409;DHT22;7803;48.130;13.788;2022-09-30T16:19:38;23.90;99.90
15409;DHT22;7803;48.130;13.788;2022-09-30T16:22:52;23.90;99.90
15409;DHT22;7803;48.130;13.788;2022-09-30T16:26:16;23.80;99.90
15409;DHT22;7803;48.130;13.788;2022-09-30T16:29:19;23.80;99.90
15409;DHT22;7803;48.130;13.788;2022-09-30T16:32:21;23.80;99.90
15409;DHT22;7803;48.130;13.788;2022-09-30T16:35:25;23.80;99.90
15409;DHT22;7803;48.130;13.788;2022-09-30T16:38:29;23.80;99.90
15409;DHT22;7803;48.130;13.788;2022-09-30T16:41:31;23.80;99.90
15409;DHT22;7803;48.130;13.788;2022-09-30T16:44:33;23.80;99.90
15409;DHT22;7803;48.130;13.788;2022-09-30T16:47:37;23.80;99.90
15409;DHT22;7803;48.130;13.788;2022-09-30T16:50:41;23.90;99.90
15409;DHT22;7803;48.130;13.788;2022-09-30T16:53:45;23.90;99.90
15409;DHT22;7803;48.130;13.788;2022-09-30T16:56:47;23.90;99.90
15409;DHT22;7803;48.130;13.788;2022-09-30T16:59:49;23.90;99.90
15409;DHT22;7803;48.130;13.788;2022-09-30T17:02:52;23.90;99.90
15409;DHT22;7803;48.130;13.788;2022-09-30T17:05:54;23.90;99.90
15409;DHT22;7803;48.130;13.788;2022-09-30T17:08:58;23.90;99.90
15409;DHT22;7803;48.130;13.788;2022-09-30T17:12:01;24.00;99.90
15409;DHT22;7803;48.130;13.788;2022-09-30T17:15:05;24.00;99.90
15409;DHT22;7803;48.130;13.788;2022-09-30T17:18:08;24.00;99.90
15409;DHT22;7803;48.130;13.788;2022-09-30T17:21:11;24.00;99.90
15409;DHT22;7803;48.130;13.788;2022-09-30T17:24:15;24.00;99.90
15409;DHT22;7803;48.130;13.788;2022-09-30T17:27:17;23.90;99.90
15409;DHT22;7803;48.130;13.788;2022-09-30T17:30:20;23.90;99.90
15409;DHT22;7803;48.130;13.788;2022-09-30T17:33:22;23.90;99.90
15409;DHT22;7803;48.130;13.788;2022-09-30T17:36:24;23.90;99.90
15409;DHT22;7803;48.130;13.788;2022-09-30T17:39:28;23.90;99.90
15409;DHT22;7803;48.130;13.788;2022-09-30T17:42:30;23.80;99.90
15409;DHT22;7803;48.130;13.788;2022-09-30T17:45:49;23.80;99.90
15409;DHT22;7803;48.130;13.788;2022-09-30T17:48:54;23.90;99.90
15409;DHT22;7803;48.130;13.788;2022-09-30T17:51:57;23.80;99.90
15409;DHT22;7803;48.130;13.788;2022-09-30T17:55:01;23.80;99.90
15409;DHT22;7803;48.130;13.788;2022-09-30T17:58:03;23.80;99.90
15409;DHT22;7803;48.130;13.788;2022-09-30T18:01:08;23.80;99.90
15409;DHT22;7803;48.130;13.788;2022-09-30T18:04:10;23.80;99.90
15409;DHT22;7803;48.130;13.788;2022-09-30T18:07:12;23.80;99.90
15409;DHT22;7803;48.130;13.788;2022-09-30T18:10:16;23.80;99.90
15409;DHT22;7803;48.130;13.788;2022-09-30T18:13:18;23.80;99.90
15409;DHT22;7803;48.130;13.788;2022-09-30T18:16:21;23.80;99.90
15409;DHT22;7803;48.130;13.788;2022-09-30T18:19:24;23.80;99.90
15409;DHT22;7803;48.130;13.788;2022-09-30T18:22:26;23.80;99.90
15409;DHT22;7803;48.130;13.788;2022-09-30T18:25:30;23.80;99.90
15409;DHT22;7803;48.130;13.788;2022-09-30T18:28:34;23.90;99.90
15409;DHT22;7803;48.130;13.788;2022-09-30T18:31:38;23.80;99.90
15409;DHT22;7803;48.130;13.788;2022-09-30T18:34:40;23.80;99.90
15409;DHT22;7803;48.130;13.788;2022-09-30T18:37:42;23.90;99.90
15409;DHT22;7803;48.130;13.788;2022-09-30T18:40:48;23.80;99.90
15409;DHT22;7803;48.130;13.788;2022-09-30T18:43:53;23.80;99.90
15409;DHT22;7803;48.130;13.788;2022-09-30T18:46:59;23.90;99.90
15409;DHT22;7803;48.130;13.788;2022-09-30T18:50:01;23.90;99.90
15409;DHT22;7803;48.130;13.788;2022-09-30T18:53:04;23.90;99.90
15409;DHT22;7803;48.130;13.788;2022-09-30T18:56:11;23.90;99.90
15409;DHT22;7803;48.130;13.788;2022-09-30T18:59:13;23.90;99.90
15409;DHT22;7803;48.130;13.788;2022-09-30T19:02:16;24.00;99.90
15409;DHT22;7803;48.130;13.788;2022-09-30T19:05:21;23.90;99.90
15409;DHT22;7803;48.130;13.788;2022-09-30T19:08:23;23.90;99.90
15409;DHT22;7803;48.130;13.788;2022-09-30T19:11:27;23.90;99.90
15409;DHT22;7803;48.130;13.788;2022-09-30T19:14:29;24.00;99.90
15409;DHT22;7803;48.130;13.788;2022-09-30T19:17:34;23.90;99.90
15409;DHT22;7803;48.130;13.788;2022-09-30T19:20:38;24.00;99.90
15409;DHT22;7803;48.130;13.788;2022-09-30T19:23:41;23.90;99.90
15409;DHT22;7803;48.130;13.788;2022-09-30T19:26:45;23.90;99.90
15409;DHT22;7803;48.130;13.788;2022-09-30T19:29:48;23.90;99.90
15409;DHT22;7803;48.130;13.788;2022-09-30T19:32:54;23.90;99.90
15409;DHT22;7803;48.130;13.788;2022-09-30T19:36:03;23.90;99.90
15409;DHT22;7803;48.130;13.788;2022-09-30T19:39:05;24.00;99.90
15409;DHT22;7803;48.130;13.788;2022-09-30T19:42:10;24.00;99.90
15409;DHT22;7803;48.130;13.788;2022-09-30T19:45:14;24.00;99.90
15409;DHT22;7803;48.130;13.788;2022-09-30T19:48:16;24.00;99.90
15409;DHT22;7803;48.130;13.788;2022-09-30T19:51:19;24.00;99.90
15409;DHT22;7803;48.130;13.788;2022-09-30T19:54:22;24.00;99.90